createdAt,value
2018-02-08T00:00:48.750Z,100
2018-02-08T00:01:51.170Z,100
2018-02-08T00:02:53.874Z,100
2018-02-08T00:03:56.292Z,100
2018-02-08T00:04:58.704Z,100
2018-02-08T00:06:01.114Z,100
2018-02-08T00:07:03.815Z,100
2018-02-08T00:08:06.226Z,100
2018-02-08T00:09:08.638Z,100
2018-02-08T00:10:11.060Z,100
2018-02-08T00:11:13.481Z,100
2018-02-08T00:12:15.893Z,100
2018-02-08T00:13:18.305Z,100
2018-02-08T00:14:20.726Z,100
2018-02-08T00:15:23.135Z,100
2018-02-08T00:16:25.552Z,100
2018-02-08T00:17:27.968Z,100
2018-02-08T00:18:30.398Z,100
2018-02-08T00:19:32.814Z,100
2018-02-08T00:20:35.244Z,100
2018-02-08T00:21:37.662Z,100
2018-02-08T00:22:40.086Z,100
2018-02-08T00:23:42.497Z,100
2018-02-08T00:24:44.911Z,100
2018-02-08T00:25:47.319Z,100
2018-02-08T00:26:49.747Z,100
2018-02-08T00:27:52.160Z,100
2018-02-08T00:28:54.866Z,100
2018-02-08T00:29:57.861Z,100
2018-02-08T00:31:00.277Z,100
2018-02-08T00:32:02.984Z,100
2018-02-08T00:33:05.420Z,100
2018-02-08T00:34:07.816Z,100
2018-02-08T00:35:10.239Z,100
2018-02-08T00:36:12.663Z,100
2018-02-08T00:37:15.073Z,100
2018-02-08T00:38:17.496Z,100
2018-02-08T00:39:19.917Z,100
2018-02-08T00:40:22.323Z,100
2018-02-08T00:41:24.750Z,100
2018-02-08T00:42:27.160Z,100
2018-02-08T00:43:29.575Z,100
2018-02-08T00:44:31.984Z,100
2018-02-08T00:45:34.392Z,100
2018-02-08T00:46:36.811Z,100
2018-02-08T00:47:39.227Z,100
2018-02-08T00:48:41.648Z,100
2018-02-08T00:49:44.063Z,100
2018-02-08T00:50:46.478Z,100
2018-02-08T00:51:49.191Z,100
2018-02-08T00:52:51.605Z,100
2018-02-08T00:53:54.017Z,100
2018-02-08T00:54:56.430Z,100
2018-02-08T00:55:59.129Z,100
2018-02-08T00:57:01.541Z,100
2018-02-08T00:58:03.956Z,100
2018-02-08T00:59:06.355Z,100
2018-02-08T01:00:08.772Z,100
2018-02-08T01:01:11.485Z,100
2018-02-08T01:02:13.903Z,100
2018-02-08T01:03:16.317Z,100
2018-02-08T01:04:18.733Z,100
2018-02-08T01:05:21.443Z,100
2018-02-08T01:06:23.871Z,100
2018-02-08T01:07:26.284Z,100
2018-02-08T01:08:28.690Z,100
2018-02-08T01:09:31.101Z,100
2018-02-08T01:10:33.523Z,100
2018-02-08T01:11:36.227Z,100
2018-02-08T01:12:38.637Z,100
2018-02-08T01:13:41.060Z,100
2018-02-08T01:14:43.483Z,100
2018-02-08T01:15:45.895Z,100
2018-02-08T01:16:48.611Z,100
2018-02-08T01:17:51.037Z,100
2018-02-08T01:18:53.447Z,100
2018-02-08T01:19:56.169Z,100
2018-02-08T01:20:58.585Z,100
2018-02-08T01:22:01.277Z,100
2018-02-08T01:23:03.710Z,100
2018-02-08T01:24:06.119Z,100
2018-02-08T01:25:08.529Z,100
2018-02-08T01:26:10.951Z,100
2018-02-08T01:27:13.639Z,100
2018-02-08T01:28:16.053Z,100
2018-02-08T01:29:18.467Z,100
2018-02-08T01:30:20.888Z,100
2018-02-08T01:31:23.302Z,100
2018-02-08T01:32:25.729Z,100
2018-02-08T01:33:28.131Z,100
2018-02-08T01:34:30.559Z,100
2018-02-08T01:35:32.971Z,100
2018-02-08T01:36:35.394Z,100
2018-02-08T01:37:37.803Z,100
2018-02-08T01:38:40.216Z,100
2018-02-08T01:39:42.633Z,100
2018-02-08T01:40:45.049Z,100
2018-02-08T01:41:47.476Z,100
2018-02-08T01:42:50.182Z,100
2018-02-08T01:43:52.591Z,100
2018-02-08T01:44:55.013Z,100
2018-02-08T01:45:57.432Z,100
2018-02-08T01:46:59.840Z,100
2018-02-08T01:48:02.554Z,100
2018-02-08T01:49:04.954Z,100
2018-02-08T01:50:07.368Z,100
2018-02-08T01:51:09.787Z,100
2018-02-08T01:52:12.205Z,100
2018-02-08T01:53:14.896Z,100
2018-02-08T01:54:17.320Z,100
2018-02-08T01:55:20.030Z,100
2018-02-08T01:56:22.454Z,100
2018-02-08T01:57:24.870Z,100
2018-02-08T01:58:27.850Z,100
2018-02-08T01:59:30.277Z,100
2018-02-08T02:00:32.690Z,100
2018-02-08T02:01:35.111Z,100
2018-02-08T02:02:37.522Z,100
2018-02-08T02:03:40.217Z,100
2018-02-08T02:04:42.910Z,100
2018-02-08T02:05:45.338Z,100
2018-02-08T02:06:48.032Z,100
2018-02-08T02:07:50.446Z,100
2018-02-08T02:08:52.863Z,100
2018-02-08T02:09:55.578Z,100
2018-02-08T02:10:57.992Z,100
2018-02-08T02:12:00.405Z,100
2018-02-08T02:13:02.830Z,100
2018-02-08T02:14:05.252Z,100
2018-02-08T02:15:07.658Z,100
2018-02-08T02:16:10.079Z,100
2018-02-08T02:17:12.498Z,100
2018-02-08T02:18:14.901Z,100
2018-02-08T02:19:17.316Z,100
2018-02-08T02:20:19.724Z,100
2018-02-08T02:21:22.138Z,100
2018-02-08T02:22:24.562Z,100
2018-02-08T02:23:26.977Z,100
2018-02-08T02:24:29.392Z,100
2018-02-08T02:25:32.096Z,100
2018-02-08T02:26:34.790Z,100
2018-02-08T02:27:37.503Z,100
2018-02-08T02:28:39.922Z,100
2018-02-08T02:29:42.336Z,100
2018-02-08T02:30:44.759Z,100
2018-02-08T02:31:47.170Z,100
2018-02-08T02:32:49.574Z,100
2018-02-08T02:33:51.997Z,100
2018-02-08T02:34:54.411Z,100
2018-02-08T02:35:56.822Z,100
2018-02-08T02:36:59.246Z,100
2018-02-08T02:38:01.664Z,100
2018-02-08T02:39:04.084Z,100
2018-02-08T02:40:06.512Z,100
2018-02-08T02:41:08.923Z,100
2018-02-08T02:42:11.339Z,100
2018-02-08T02:43:13.754Z,100
2018-02-08T02:44:16.157Z,100
2018-02-08T02:45:18.573Z,100
2018-02-08T02:46:21.567Z,100
2018-02-08T02:47:23.967Z,100
2018-02-08T02:48:26.395Z,100
2018-02-08T02:49:28.808Z,100
2018-02-08T02:50:31.226Z,100
2018-02-08T02:51:33.648Z,100
2018-02-08T02:52:36.065Z,100
2018-02-08T02:53:38.472Z,100
2018-02-08T02:54:41.186Z,100
2018-02-08T02:55:43.889Z,100
2018-02-08T02:56:46.597Z,100
2018-02-08T02:57:49.021Z,100
2018-02-08T02:58:51.723Z,100
2018-02-08T02:59:54.136Z,100
2018-02-08T03:00:56.547Z,100
2018-02-08T03:01:58.960Z,100
2018-02-08T03:03:01.382Z,100
2018-02-08T03:04:04.069Z,100
2018-02-08T03:05:06.484Z,100
2018-02-08T03:06:08.905Z,100
2018-02-08T03:07:11.616Z,100
2018-02-08T03:08:14.034Z,100
2018-02-08T03:09:16.446Z,100
2018-02-08T03:10:18.858Z,100
2018-02-08T03:11:21.282Z,100
2018-02-08T03:12:23.683Z,100
2018-02-08T03:13:26.090Z,100
2018-02-08T03:14:28.514Z,100
2018-02-08T03:15:30.931Z,100
2018-02-08T03:16:33.347Z,100
2018-02-08T03:17:36.074Z,100
2018-02-08T03:18:38.489Z,100
2018-02-08T03:19:40.916Z,100
2018-02-08T03:20:43.346Z,100
2018-02-08T03:21:46.322Z,100
2018-02-08T03:22:48.737Z,100
2018-02-08T03:23:51.156Z,100
2018-02-08T03:24:53.569Z,100
2018-02-08T03:25:55.989Z,100
2018-02-08T03:26:58.396Z,100
2018-02-08T03:28:01.099Z,100
2018-02-08T03:29:03.529Z,100
2018-02-08T03:30:05.943Z,100
2018-02-08T03:31:08.636Z,100
2018-02-08T03:32:11.054Z,100
2018-02-08T03:33:13.464Z,100
2018-02-08T03:34:15.874Z,100
2018-02-08T03:35:18.296Z,100
2018-02-08T03:36:20.705Z,100
2018-02-08T03:37:23.404Z,100
2018-02-08T03:38:25.834Z,100
2018-02-08T03:39:28.240Z,100
2018-02-08T03:40:30.655Z,100
2018-02-08T03:41:33.068Z,100
2018-02-08T03:42:35.485Z,100
2018-02-08T03:43:37.888Z,100
2018-02-08T03:44:40.589Z,100
2018-02-08T03:45:43.010Z,100
2018-02-08T03:46:45.435Z,100
2018-02-08T03:47:47.915Z,100
2018-02-08T03:48:50.642Z,100
2018-02-08T03:49:53.058Z,100
2018-02-08T03:50:55.478Z,100
2018-02-08T03:51:57.885Z,100
2018-02-08T03:53:00.589Z,100
2018-02-08T03:54:03.007Z,100
2018-02-08T03:55:05.409Z,100
2018-02-08T03:56:07.814Z,100
2018-02-08T03:57:10.237Z,100
2018-02-08T03:58:12.658Z,100
2018-02-08T03:59:15.064Z,100
2018-02-08T04:00:17.486Z,100
2018-02-08T04:01:19.901Z,100
2018-02-08T04:02:22.327Z,100
2018-02-08T04:03:24.747Z,100
2018-02-08T04:04:27.149Z,100
2018-02-08T04:05:29.565Z,100
2018-02-08T04:06:31.981Z,100
2018-02-08T04:07:34.400Z,100
2018-02-08T04:08:36.811Z,100
2018-02-08T04:09:39.237Z,100
2018-02-08T04:10:41.648Z,100
2018-02-08T04:11:44.058Z,100
2018-02-08T04:12:46.474Z,100
2018-02-08T04:13:49.167Z,100
2018-02-08T04:14:51.581Z,100
2018-02-08T04:15:54.004Z,100
2018-02-08T04:16:56.406Z,100
2018-02-08T04:17:58.828Z,100
2018-02-08T04:19:01.249Z,100
2018-02-08T04:20:03.935Z,100
2018-02-08T04:21:06.351Z,100
2018-02-08T04:22:08.767Z,100
2018-02-08T04:23:11.181Z,100
2018-02-08T04:24:13.596Z,100
2018-02-08T04:25:16.007Z,100
2018-02-08T04:26:18.424Z,100
2018-02-08T04:27:20.844Z,100
2018-02-08T04:28:23.259Z,100
2018-02-08T04:29:25.685Z,100
2018-02-08T04:30:28.097Z,100
2018-02-08T04:31:31.082Z,100
2018-02-08T04:32:33.498Z,100
2018-02-08T04:33:35.910Z,100
2018-02-08T04:34:38.325Z,100
2018-02-08T04:35:40.735Z,100
2018-02-08T04:36:43.138Z,100
2018-02-08T04:37:45.559Z,100
2018-02-08T04:38:47.971Z,100
2018-02-08T04:39:50.387Z,100
2018-02-08T04:40:52.803Z,100
2018-02-08T04:41:55.225Z,100
2018-02-08T04:42:57.639Z,100
2018-02-08T04:44:00.344Z,100
2018-02-08T04:45:02.746Z,100
2018-02-08T04:46:05.160Z,100
2018-02-08T04:47:07.560Z,100
2018-02-08T04:48:09.974Z,100
2018-02-08T04:49:12.383Z,100
2018-02-08T04:50:14.799Z,100
2018-02-08T04:51:17.215Z,100
2018-02-08T04:52:19.638Z,100
2018-02-08T04:53:22.036Z,100
2018-02-08T04:54:24.456Z,100
2018-02-08T04:55:26.879Z,100
2018-02-08T04:56:29.288Z,100
2018-02-08T04:57:31.705Z,100
2018-02-08T04:58:34.117Z,100
2018-02-08T04:59:36.514Z,100
2018-02-08T05:00:38.946Z,100
2018-02-08T05:01:41.356Z,100
2018-02-08T05:02:43.771Z,100
2018-02-08T05:03:46.182Z,100
2018-02-08T05:04:48.592Z,100
2018-02-08T05:05:51.278Z,100
2018-02-08T05:06:53.706Z,100
2018-02-08T05:07:56.109Z,100
2018-02-08T05:08:58.529Z,100
2018-02-08T05:10:00.949Z,100
2018-02-08T05:11:03.372Z,100
2018-02-08T05:12:05.781Z,100
2018-02-08T05:13:08.189Z,100
2018-02-08T05:14:10.603Z,100
2018-02-08T05:15:13.012Z,100
2018-02-08T05:16:15.434Z,100
2018-02-08T05:17:18.126Z,100
2018-02-08T05:18:20.813Z,100
2018-02-08T05:19:23.236Z,100
2018-02-08T05:20:25.948Z,100
2018-02-08T05:21:28.357Z,100
2018-02-08T05:22:30.765Z,100
2018-02-08T05:23:33.182Z,100
2018-02-08T05:24:35.588Z,100
2018-02-08T05:25:38.304Z,100
2018-02-08T05:26:40.715Z,100
2018-02-08T05:27:43.129Z,100
2018-02-08T05:28:45.539Z,100
2018-02-08T05:29:47.956Z,100
2018-02-08T05:30:50.653Z,100
2018-02-08T05:31:53.067Z,100
2018-02-08T05:32:55.510Z,100
2018-02-08T05:33:57.882Z,100
2018-02-08T05:35:00.305Z,100
2018-02-08T05:36:02.723Z,100
2018-02-08T05:37:05.128Z,100
2018-02-08T05:38:07.541Z,100
2018-02-08T05:39:10.264Z,100
2018-02-08T05:40:12.672Z,100
2018-02-08T05:41:15.082Z,100
2018-02-08T05:42:17.508Z,100
2018-02-08T05:43:20.189Z,100
2018-02-08T05:44:22.890Z,100
2018-02-08T05:45:25.878Z,100
2018-02-08T05:46:28.287Z,100
2018-02-08T05:47:30.980Z,100
2018-02-08T05:48:33.397Z,100
2018-02-08T05:49:35.806Z,100
2018-02-08T05:50:38.224Z,100
2018-02-08T05:51:40.639Z,100
2018-02-08T05:52:43.050Z,100
2018-02-08T05:53:45.465Z,100
2018-02-08T05:54:47.884Z,100
2018-02-08T05:55:50.580Z,100
2018-02-08T05:56:52.994Z,100
2018-02-08T05:57:55.401Z,100
2018-02-08T05:58:58.088Z,100
2018-02-08T06:00:00.500Z,100
2018-02-08T06:01:03.196Z,100
2018-02-08T06:02:05.600Z,100
2018-02-08T06:03:08.294Z,100
2018-02-08T06:04:10.709Z,100
2018-02-08T06:05:13.132Z,100
2018-02-08T06:06:15.539Z,100
2018-02-08T06:07:17.961Z,100
2018-02-08T06:08:20.374Z,100
2018-02-08T06:09:22.780Z,100
2018-02-08T06:10:25.486Z,100
2018-02-08T06:11:27.904Z,100
2018-02-08T06:12:30.312Z,100
2018-02-08T06:13:32.730Z,100
2018-02-08T06:14:35.145Z,100
2018-02-08T06:15:37.569Z,100
2018-02-08T06:16:39.981Z,100
2018-02-08T06:17:42.383Z,100
2018-02-08T06:18:44.800Z,100
2018-02-08T06:19:47.213Z,100
2018-02-08T06:20:49.636Z,100
2018-02-08T06:21:52.088Z,100
2018-02-08T06:22:54.441Z,100
2018-02-08T06:23:56.854Z,100
2018-02-08T06:24:59.274Z,100
2018-02-08T06:26:01.685Z,100
2018-02-08T06:27:04.095Z,100
2018-02-08T06:28:06.507Z,100
2018-02-08T06:29:08.914Z,100
2018-02-08T06:30:11.341Z,100
2018-02-08T06:31:13.748Z,100
2018-02-08T06:32:16.153Z,100
2018-02-08T06:33:18.575Z,100
2018-02-08T06:34:20.990Z,100
2018-02-08T06:35:23.412Z,100
2018-02-08T06:36:25.826Z,100
2018-02-08T06:37:28.237Z,100
2018-02-08T06:38:30.648Z,100
2018-02-08T06:39:33.072Z,100
2018-02-08T06:40:35.479Z,100
2018-02-08T06:41:37.874Z,100
2018-02-08T06:42:40.296Z,100
2018-02-08T06:43:42.724Z,100
2018-02-08T06:44:45.141Z,100
2018-02-08T06:45:47.561Z,100
2018-02-08T06:46:49.969Z,100
2018-02-08T06:47:52.409Z,100
2018-02-08T06:48:54.801Z,100
2018-02-08T06:49:57.511Z,100
2018-02-08T06:50:59.915Z,100
2018-02-08T06:52:02.335Z,100
2018-02-08T06:53:05.321Z,100
2018-02-08T06:54:08.018Z,100
2018-02-08T06:55:10.719Z,100
2018-02-08T06:56:13.428Z,100
2018-02-08T06:57:15.839Z,100
2018-02-08T06:58:18.263Z,100
2018-02-08T06:59:20.680Z,100
2018-02-08T07:00:23.376Z,100
2018-02-08T07:01:26.078Z,100
2018-02-08T07:02:28.492Z,100
2018-02-08T07:03:30.913Z,100
2018-02-08T07:04:33.329Z,100
2018-02-08T07:05:35.725Z,100
2018-02-08T07:06:38.134Z,100
2018-02-08T07:07:40.840Z,100
2018-02-08T07:08:43.246Z,100
2018-02-08T07:09:45.661Z,100
2018-02-08T07:10:48.072Z,100
2018-02-08T07:11:50.490Z,100
2018-02-08T07:12:52.896Z,100
2018-02-08T07:13:55.610Z,100
2018-02-08T07:14:58.022Z,100
2018-02-08T07:16:00.434Z,100
2018-02-08T07:17:02.847Z,100
2018-02-08T07:18:05.262Z,100
2018-02-08T07:19:07.666Z,100
2018-02-08T07:20:10.085Z,100
2018-02-08T07:21:12.498Z,100
2018-02-08T07:22:14.918Z,100
2018-02-08T07:23:17.323Z,100
2018-02-08T07:24:19.741Z,100
2018-02-08T07:25:22.149Z,100
2018-02-08T07:26:24.562Z,100
2018-02-08T07:27:26.977Z,100
2018-02-08T07:28:29.692Z,100
2018-02-08T07:29:32.090Z,100
2018-02-08T07:30:34.518Z,100
2018-02-08T07:31:36.932Z,100
2018-02-08T07:32:39.632Z,100
2018-02-08T07:33:42.049Z,100
2018-02-08T07:34:44.458Z,100
2018-02-08T07:35:46.871Z,100
2018-02-08T07:36:49.567Z,100
2018-02-08T07:37:51.984Z,100
2018-02-08T07:38:54.408Z,100
2018-02-08T07:39:56.821Z,100
2018-02-08T07:40:59.241Z,100
2018-02-08T07:42:01.647Z,100
2018-02-08T07:43:04.361Z,100
2018-02-08T07:44:06.777Z,100
2018-02-08T07:45:09.189Z,100
2018-02-08T07:46:11.607Z,100
2018-02-08T07:47:14.029Z,100
2018-02-08T07:48:16.739Z,100
2018-02-08T07:49:19.167Z,100
2018-02-08T07:50:21.583Z,100
2018-02-08T07:51:23.996Z,100
2018-02-08T07:52:26.409Z,100
2018-02-08T07:53:28.839Z,100
2018-02-08T07:54:31.552Z,100
2018-02-08T07:55:33.970Z,100
2018-02-08T07:56:36.730Z,100
2018-02-08T07:57:39.434Z,100
2018-02-08T07:58:41.852Z,100
2018-02-08T07:59:44.273Z,100
2018-02-08T08:00:46.687Z,100
2018-02-08T08:01:49.110Z,100
2018-02-08T08:02:51.544Z,100
2018-02-08T08:03:54.320Z,100
2018-02-08T08:04:56.692Z,100
2018-02-08T08:05:59.113Z,100
2018-02-08T08:07:01.839Z,100
2018-02-08T08:08:04.543Z,100
2018-02-08T08:09:06.970Z,100
2018-02-08T08:10:09.380Z,100
2018-02-08T08:11:11.802Z,100
2018-02-08T08:12:14.221Z,100
2018-02-08T08:13:16.928Z,100
2018-02-08T08:14:19.623Z,100
2018-02-08T08:15:22.049Z,100
2018-02-08T08:16:24.769Z,100
2018-02-08T08:17:27.197Z,100
2018-02-08T08:18:29.626Z,100
2018-02-08T08:19:32.617Z,100
2018-02-08T08:20:35.041Z,100
2018-02-08T08:21:37.480Z,100
2018-02-08T08:22:39.906Z,100
2018-02-08T08:23:42.328Z,100
2018-02-08T08:24:44.755Z,100
2018-02-08T08:25:47.184Z,100
2018-02-08T08:26:49.603Z,100
2018-02-08T08:27:52.336Z,100
2018-02-08T08:28:54.743Z,100
2018-02-08T08:29:57.167Z,100
2018-02-08T08:30:59.601Z,100
2018-02-08T08:32:02.310Z,100
2018-02-08T08:33:04.738Z,100
2018-02-08T08:34:07.167Z,100
2018-02-08T08:35:09.604Z,100
2018-02-08T08:36:12.017Z,100
2018-02-08T08:37:14.726Z,100
2018-02-08T08:38:17.160Z,100
2018-02-08T08:39:19.579Z,100
2018-02-08T08:40:22.007Z,100
2018-02-08T08:41:24.425Z,100
2018-02-08T08:42:26.847Z,100
2018-02-08T08:43:29.282Z,100
2018-02-08T08:44:31.740Z,100
2018-02-08T08:45:34.129Z,100
2018-02-08T08:46:36.568Z,100
2018-02-08T08:47:38.996Z,100
2018-02-08T08:48:41.428Z,100
2018-02-08T08:49:43.859Z,99
2018-02-08T08:50:46.284Z,97
2018-02-08T08:51:48.720Z,95
2018-02-08T08:52:51.149Z,95
2018-02-08T08:53:53.575Z,97
2018-02-08T08:54:56.008Z,95
2018-02-08T08:55:58.428Z,97
2018-02-08T08:57:00.860Z,94
2018-02-08T08:58:03.560Z,92
2018-02-08T08:59:05.988Z,96
2018-02-08T09:00:08.424Z,99
2018-02-08T09:01:10.853Z,94
2018-02-08T09:02:13.285Z,92
2018-02-08T09:03:15.722Z,92
2018-02-08T09:04:18.151Z,89
2018-02-08T09:05:20.585Z,88
2018-02-08T09:06:23.018Z,89
2018-02-08T09:07:25.445Z,87
2018-02-08T09:08:27.919Z,86
2018-02-08T09:09:30.626Z,84
2018-02-08T09:10:33.047Z,85
2018-02-08T09:11:35.474Z,86
2018-02-08T09:12:37.907Z,86
2018-02-08T09:13:40.620Z,84
2018-02-08T09:14:43.059Z,81
2018-02-08T09:15:45.497Z,79
2018-02-08T09:16:47.913Z,77
2018-02-08T09:17:50.357Z,76
2018-02-08T09:18:52.830Z,75
2018-02-08T09:19:55.202Z,75
2018-02-08T09:20:57.926Z,75
2018-02-08T09:22:00.354Z,73
2018-02-08T09:23:03.064Z,74
2018-02-08T09:24:05.487Z,73
2018-02-08T09:25:07.911Z,72
2018-02-08T09:26:10.350Z,74
2018-02-08T09:27:12.784Z,76
2018-02-08T09:28:15.202Z,76
2018-02-08T09:29:17.635Z,73
2018-02-08T09:30:20.078Z,75
2018-02-08T09:31:22.800Z,72
2018-02-08T09:32:25.851Z,69
2018-02-08T09:33:28.227Z,69
2018-02-08T09:34:30.944Z,68
2018-02-08T09:35:33.657Z,68
2018-02-08T09:36:36.083Z,68
2018-02-08T09:37:38.522Z,68
2018-02-08T09:38:41.241Z,69
2018-02-08T09:39:43.964Z,68
2018-02-08T09:40:46.402Z,65
2018-02-08T09:41:48.829Z,66
2018-02-08T09:42:51.257Z,67
2018-02-08T09:43:53.701Z,67
2018-02-08T09:44:56.124Z,67
2018-02-08T09:45:58.555Z,67
2018-02-08T09:47:00.994Z,68
2018-02-08T09:48:03.424Z,66
2018-02-08T09:49:05.856Z,65
2018-02-08T09:50:08.292Z,64
2018-02-08T09:51:10.721Z,63
2018-02-08T09:52:13.160Z,62
2018-02-08T09:53:15.585Z,63
2018-02-08T09:54:18.009Z,65
2018-02-08T09:55:20.447Z,65
2018-02-08T09:56:22.886Z,66
2018-02-08T09:57:25.320Z,65
2018-02-08T09:58:27.758Z,65
2018-02-08T09:59:30.182Z,65
2018-02-08T10:00:32.911Z,65
2018-02-08T10:01:35.361Z,64
2018-02-08T10:02:37.789Z,64
2018-02-08T10:03:40.494Z,65
2018-02-08T10:04:42.928Z,64
2018-02-08T10:05:45.361Z,65
2018-02-08T10:06:48.087Z,66
2018-02-08T10:07:50.514Z,66
2018-02-08T10:08:52.968Z,65
2018-02-08T10:09:55.451Z,66
2018-02-08T10:10:57.828Z,66
2018-02-08T10:12:00.270Z,67
2018-02-08T10:13:02.700Z,66
2018-02-08T10:14:05.133Z,66
2018-02-08T10:15:07.566Z,65
2018-02-08T10:16:09.990Z,66
2018-02-08T10:17:12.415Z,64
2018-02-08T10:18:14.860Z,62
2018-02-08T10:19:17.283Z,63
2018-02-08T10:20:20.010Z,60
2018-02-08T10:21:22.441Z,59
2018-02-08T10:22:24.875Z,59
2018-02-08T10:23:27.604Z,57
2018-02-08T10:24:30.047Z,59
2018-02-08T10:25:32.468Z,57
2018-02-08T10:26:34.920Z,57
2018-02-08T10:27:37.345Z,58
2018-02-08T10:28:40.087Z,57
2018-02-08T10:29:42.520Z,57
2018-02-08T10:30:45.250Z,58
2018-02-08T10:31:48.072Z,58
2018-02-08T10:32:50.513Z,58
2018-02-08T10:33:52.936Z,59
2018-02-08T10:34:55.382Z,58
2018-02-08T10:35:58.110Z,58
2018-02-08T10:37:00.538Z,58
2018-02-08T10:38:02.979Z,58
2018-02-08T10:39:05.418Z,58
2018-02-08T10:40:07.845Z,58
2018-02-08T10:41:10.287Z,57
2018-02-08T10:42:12.703Z,57
2018-02-08T10:43:15.133Z,58
2018-02-08T10:44:17.579Z,56
2018-02-08T10:45:20.294Z,55
2018-02-08T10:46:22.724Z,55
2018-02-08T10:47:25.160Z,57
2018-02-08T10:48:27.605Z,56
2018-02-08T10:49:30.048Z,57
2018-02-08T10:50:32.784Z,56
2018-02-08T10:51:35.203Z,56
2018-02-08T10:52:37.643Z,58
2018-02-08T10:53:40.086Z,58
2018-02-08T10:54:42.524Z,57
2018-02-08T10:55:44.960Z,56
2018-02-08T10:56:47.671Z,57
2018-02-08T10:57:50.102Z,54
2018-02-08T10:58:52.551Z,53
2018-02-08T10:59:54.983Z,54
2018-02-08T11:00:57.410Z,54
2018-02-08T11:02:00.139Z,54
2018-02-08T11:03:02.576Z,53
2018-02-08T11:04:05.014Z,54
2018-02-08T11:05:07.451Z,54
2018-02-08T11:06:09.891Z,53
2018-02-08T11:07:12.328Z,53
2018-02-08T11:08:14.762Z,54
2018-02-08T11:09:17.192Z,55
2018-02-08T11:10:19.621Z,54
2018-02-08T11:11:22.055Z,54
2018-02-08T11:12:24.488Z,53
2018-02-08T11:13:27.198Z,54
2018-02-08T11:14:29.642Z,53
2018-02-08T11:15:32.084Z,52
2018-02-08T11:16:34.522Z,52
2018-02-08T11:17:37.270Z,52
2018-02-08T11:18:39.712Z,52
2018-02-08T11:19:42.195Z,53
2018-02-08T11:20:44.569Z,52
2018-02-08T11:21:47.302Z,51
2018-02-08T11:22:49.729Z,50
2018-02-08T11:23:52.167Z,51
2018-02-08T11:24:54.616Z,52
2018-02-08T11:25:57.036Z,52
2018-02-08T11:26:59.481Z,51
2018-02-08T11:28:01.917Z,51
2018-02-08T11:29:04.345Z,52
2018-02-08T11:30:06.788Z,51
2018-02-08T11:31:09.227Z,51
2018-02-08T11:32:11.654Z,51
2018-02-08T11:33:14.378Z,51
2018-02-08T11:34:16.819Z,51
2018-02-08T11:35:19.254Z,51
2018-02-08T11:36:21.687Z,51
2018-02-08T11:37:24.122Z,50
2018-02-08T11:38:26.559Z,50
2018-02-08T11:39:28.984Z,50
2018-02-08T11:40:31.711Z,50
2018-02-08T11:41:34.140Z,49
2018-02-08T11:42:36.904Z,50
2018-02-08T11:43:39.325Z,50
2018-02-08T11:44:41.765Z,51
2018-02-08T11:45:44.205Z,51
2018-02-08T11:46:46.673Z,51
2018-02-08T11:47:49.128Z,51
2018-02-08T11:48:51.578Z,51
2018-02-08T11:49:54.009Z,51
2018-02-08T11:50:56.449Z,50
2018-02-08T11:51:59.445Z,49
2018-02-08T11:53:01.882Z,50
2018-02-08T11:54:04.324Z,49
2018-02-08T11:55:06.756Z,49
2018-02-08T11:56:09.184Z,50
2018-02-08T11:57:11.935Z,50
2018-02-08T11:58:14.370Z,51
2018-02-08T11:59:16.845Z,50
2018-02-08T12:00:19.279Z,50
2018-02-08T12:01:21.720Z,50
2018-02-08T12:02:24.168Z,51
2018-02-08T12:03:26.601Z,50
2018-02-08T12:04:29.037Z,50
2018-02-08T12:05:31.474Z,50
2018-02-08T12:06:33.955Z,49
2018-02-08T12:07:36.336Z,48
2018-02-08T12:08:38.771Z,48
2018-02-08T12:09:41.214Z,48
2018-02-08T12:10:43.650Z,49
2018-02-08T12:11:46.100Z,48
2018-02-08T12:12:48.527Z,48
2018-02-08T12:13:50.972Z,47
2018-02-08T12:14:53.419Z,46
2018-02-08T12:15:55.854Z,48
2018-02-08T12:16:58.293Z,48
2018-02-08T12:18:00.735Z,49
2018-02-08T12:19:03.180Z,49
2018-02-08T12:20:05.899Z,50
2018-02-08T12:21:08.338Z,49
2018-02-08T12:22:10.768Z,50
2018-02-08T12:23:13.208Z,49
2018-02-08T12:24:15.944Z,49
2018-02-08T12:25:18.379Z,48
2018-02-08T12:26:20.823Z,46
2018-02-08T12:27:23.260Z,46
2018-02-08T12:28:25.704Z,44
2018-02-08T12:29:28.146Z,44
2018-02-08T12:30:30.583Z,43
2018-02-08T12:31:33.010Z,44
2018-02-08T12:32:35.449Z,44
2018-02-08T12:33:38.159Z,45
2018-02-08T12:34:40.598Z,46
2018-02-08T12:35:43.057Z,46
2018-02-08T12:36:45.533Z,46
2018-02-08T12:37:47.920Z,45
2018-02-08T12:38:50.368Z,46
2018-02-08T12:39:52.793Z,45
2018-02-08T12:40:55.241Z,45
2018-02-08T12:41:57.677Z,44
2018-02-08T12:43:00.164Z,44
2018-02-08T12:44:02.555Z,44
2018-02-08T12:45:04.991Z,43
2018-02-08T12:46:07.431Z,44
2018-02-08T12:47:09.876Z,45
2018-02-08T12:48:12.306Z,45
2018-02-08T12:49:14.746Z,47
2018-02-08T12:50:17.189Z,49
2018-02-08T12:51:19.620Z,51
2018-02-08T12:52:22.052Z,51
2018-02-08T12:53:24.506Z,52
2018-02-08T12:54:26.933Z,50
2018-02-08T12:55:29.386Z,49
2018-02-08T12:56:31.829Z,49
2018-02-08T12:57:34.264Z,49
2018-02-08T12:58:36.700Z,50
2018-02-08T12:59:39.137Z,49
2018-02-08T13:00:41.571Z,48
2018-02-08T13:01:44.015Z,49
2018-02-08T13:02:46.460Z,49
2018-02-08T13:03:48.900Z,49
2018-02-08T13:04:51.335Z,49
2018-02-08T13:05:53.836Z,48
2018-02-08T13:06:56.225Z,48
2018-02-08T13:07:58.971Z,47
2018-02-08T13:09:01.408Z,47
2018-02-08T13:10:03.850Z,46
2018-02-08T13:11:06.273Z,46
2018-02-08T13:12:08.714Z,46
2018-02-08T13:13:11.143Z,46
2018-02-08T13:14:13.863Z,48
2018-02-08T13:15:16.327Z,47
2018-02-08T13:16:18.756Z,47
2018-02-08T13:17:21.200Z,46
2018-02-08T13:18:23.636Z,48
2018-02-08T13:19:26.066Z,47
2018-02-08T13:20:28.499Z,47
2018-02-08T13:21:31.232Z,46
2018-02-08T13:22:33.672Z,46
2018-02-08T13:23:36.106Z,45
2018-02-08T13:24:38.550Z,47
2018-02-08T13:25:40.989Z,47
2018-02-08T13:26:43.721Z,48
2018-02-08T13:27:46.167Z,46
2018-02-08T13:28:48.584Z,46
2018-02-08T13:29:51.024Z,46
2018-02-08T13:30:53.469Z,46
2018-02-08T13:31:55.915Z,47
2018-02-08T13:32:58.346Z,47
2018-02-08T13:34:00.781Z,47
2018-02-08T13:35:03.228Z,47
2018-02-08T13:36:05.651Z,47
2018-02-08T13:37:08.092Z,46
2018-02-08T13:38:10.532Z,47
2018-02-08T13:39:12.961Z,47
2018-02-08T13:40:15.407Z,48
2018-02-08T13:41:17.847Z,48
2018-02-08T13:42:20.569Z,48
2018-02-08T13:43:23.013Z,48
2018-02-08T13:44:25.730Z,48
2018-02-08T13:45:28.173Z,49
2018-02-08T13:46:30.651Z,49
2018-02-08T13:47:33.325Z,49
2018-02-08T13:48:35.760Z,50
2018-02-08T13:49:38.197Z,50
2018-02-08T13:50:40.630Z,51
2018-02-08T13:51:43.067Z,52
2018-02-08T13:52:45.500Z,52
2018-02-08T13:53:47.935Z,52
2018-02-08T13:54:50.378Z,52
2018-02-08T13:55:52.813Z,52
2018-02-08T13:56:55.250Z,52
2018-02-08T13:57:57.684Z,53
2018-02-08T13:59:00.116Z,52
2018-02-08T14:00:02.562Z,52
2018-02-08T14:01:04.995Z,53
2018-02-08T14:02:07.443Z,52
2018-02-08T14:03:09.881Z,53
2018-02-08T14:04:12.305Z,52
2018-02-08T14:05:14.746Z,52
2018-02-08T14:06:17.179Z,52
2018-02-08T14:07:19.625Z,53
2018-02-08T14:08:22.061Z,52
2018-02-08T14:09:24.496Z,52
2018-02-08T14:10:26.933Z,53
2018-02-08T14:11:29.668Z,54
2018-02-08T14:12:32.104Z,53
2018-02-08T14:13:34.536Z,52
2018-02-08T14:14:36.972Z,52
2018-02-08T14:15:39.401Z,52
2018-02-08T14:16:41.848Z,53
2018-02-08T14:17:44.282Z,53
2018-02-08T14:18:46.707Z,53
2018-02-08T14:19:49.150Z,52
2018-02-08T14:20:51.586Z,53
2018-02-08T14:21:54.032Z,54
2018-02-08T14:22:56.461Z,54
2018-02-08T14:23:59.171Z,55
2018-02-08T14:25:01.901Z,55
2018-02-08T14:26:04.346Z,56
2018-02-08T14:27:07.344Z,56
2018-02-08T14:28:10.078Z,56
2018-02-08T14:29:12.511Z,56
2018-02-08T14:30:14.940Z,54
2018-02-08T14:31:17.378Z,53
2018-02-08T14:32:19.810Z,52